sensor_id;sensor_type;location;lat;lon;timestamp;P1;durP1;ratioP1;P2;durP2;ratioP2
65719;SDS011;52447;-36.632;-64.320;2023-01-31T00:01:24;10.23;;;2.05;;
65719;SDS011;52447;-36.632;-64.320;2023-01-31T00:03:53;9.70;;;2.00;;
65719;SDS011;52447;-36.632;-64.320;2023-01-31T00:08:49;8.55;;;1.98;;
65719;SDS011;52447;-36.632;-64.320;2023-01-31T00:11:18;11.02;;;2.20;;
65719;SDS011;52447;-36.632;-64.320;2023-01-31T00:13:46;9.63;;;1.85;;
65719;SDS011;52447;-36.632;-64.320;2023-01-31T00:18:40;9.68;;;2.15;;
65719;SDS011;52447;-36.632;-64.320;2023-01-31T00:21:09;10.02;;;1.83;;
65719;SDS011;52447;-36.632;-64.320;2023-01-31T00:23:38;11.10;;;2.35;;
65719;SDS011;52447;-36.632;-64.320;2023-01-31T00:26:27;10.23;;;2.72;;
65719;SDS011;52447;-36.632;-64.320;2023-01-31T00:28:55;9.40;;;2.42;;
65719;SDS011;52447;-36.632;-64.320;2023-01-31T00:31:23;15.18;;;3.00;;
65719;SDS011;52447;-36.632;-64.320;2023-01-31T00:33:52;14.27;;;2.42;;
65719;SDS011;52447;-36.632;-64.320;2023-01-31T00:36:20;8.57;;;2.33;;
65719;SDS011;52447;-36.632;-64.320;2023-01-31T00:38:50;12.00;;;2.63;;
65719;SDS011;52447;-36.632;-64.320;2023-01-31T00:41:19;7.00;;;2.30;;
65719;SDS011;52447;-36.632;-64.320;2023-01-31T00:43:47;11.98;;;2.70;;
65719;SDS011;52447;-36.632;-64.320;2023-01-31T00:46:14;9.30;;;2.20;;
65719;SDS011;52447;-36.632;-64.320;2023-01-31T00:48:41;11.27;;;2.50;;
65719;SDS011;52447;-36.632;-64.320;2023-01-31T00:53:35;10.95;;;2.28;;
65719;SDS011;52447;-36.632;-64.320;2023-01-31T00:56:11;18.33;;;2.47;;
65719;SDS011;52447;-36.632;-64.320;2023-01-31T00:58:42;15.88;;;2.10;;
65719;SDS011;52447;-36.632;-64.320;2023-01-31T01:01:14;13.77;;;2.55;;
65719;SDS011;52447;-36.632;-64.320;2023-01-31T01:03:42;12.45;;;3.00;;
65719;SDS011;52447;-36.632;-64.320;2023-01-31T01:06:10;9.77;;;2.45;;
65719;SDS011;52447;-36.632;-64.320;2023-01-31T01:08:38;9.55;;;2.00;;
65719;SDS011;52447;-36.632;-64.320;2023-01-31T01:11:10;9.43;;;1.83;;
65719;SDS011;52447;-36.632;-64.320;2023-01-31T01:13:41;11.60;;;2.23;;
65719;SDS011;52447;-36.632;-64.320;2023-01-31T01:16:10;11.77;;;2.40;;
65719;SDS011;52447;-36.632;-64.320;2023-01-31T01:18:38;12.57;;;2.20;;
65719;SDS011;52447;-36.632;-64.320;2023-01-31T01:21:10;10.45;;;2.67;;
65719;SDS011;52447;-36.632;-64.320;2023-01-31T01:23:39;14.38;;;3.00;;
65719;SDS011;52447;-36.632;-64.320;2023-01-31T01:26:12;14.38;;;2.30;;
65719;SDS011;52447;-36.632;-64.320;2023-01-31T01:28:40;15.43;;;3.30;;
65719;SDS011;52447;-36.632;-64.320;2023-01-31T01:33:35;13.25;;;2.95;;
65719;SDS011;52447;-36.632;-64.320;2023-01-31T01:36:02;20.00;;;2.40;;
65719;SDS011;52447;-36.632;-64.320;2023-01-31T01:38:32;12.10;;;2.40;;
65719;SDS011;52447;-36.632;-64.320;2023-01-31T01:41:00;14.00;;;2.10;;
65719;SDS011;52447;-36.632;-64.320;2023-01-31T01:46:40;11.77;;;2.78;;
65719;SDS011;52447;-36.632;-64.320;2023-01-31T01:49:15;11.82;;;3.15;;
65719;SDS011;52447;-36.632;-64.320;2023-01-31T01:51:47;14.98;;;2.30;;
65719;SDS011;52447;-36.632;-64.320;2023-01-31T01:54:20;5.57;;;2.03;;
65719;SDS011;52447;-36.632;-64.320;2023-01-31T01:56:50;11.77;;;1.85;;
65719;SDS011;52447;-36.632;-64.320;2023-01-31T01:59:24;10.85;;;2.25;;
65719;SDS011;52447;-36.632;-64.320;2023-01-31T02:01:59;16.52;;;2.30;;
65719;SDS011;52447;-36.632;-64.320;2023-01-31T02:04:28;10.18;;;1.48;;
65719;SDS011;52447;-36.632;-64.320;2023-01-31T02:06:57;5.53;;;1.48;;
65719;SDS011;52447;-36.632;-64.320;2023-01-31T02:12:22;15.48;;;2.60;;
65719;SDS011;52447;-36.632;-64.320;2023-01-31T02:14:49;5.68;;;1.60;;
65719;SDS011;52447;-36.632;-64.320;2023-01-31T02:17:17;8.05;;;1.58;;
65719;SDS011;52447;-36.632;-64.320;2023-01-31T02:19:56;8.57;;;2.40;;
65719;SDS011;52447;-36.632;-64.320;2023-01-31T02:30:58;6.68;;;1.48;;
65719;SDS011;52447;-36.632;-64.320;2023-01-31T02:33:40;6.15;;;2.10;;
65719;SDS011;52447;-36.632;-64.320;2023-01-31T02:53:26;28.95;;;2.63;;
65719;SDS011;52447;-36.632;-64.320;2023-01-31T02:56:31;8.45;;;2.20;;
65719;SDS011;52447;-36.632;-64.320;2023-01-31T02:59:01;10.77;;;1.83;;
65719;SDS011;52447;-36.632;-64.320;2023-01-31T03:01:37;7.80;;;1.40;;
65719;SDS011;52447;-36.632;-64.320;2023-01-31T03:04:10;7.65;;;1.80;;
65719;SDS011;52447;-36.632;-64.320;2023-01-31T03:17:58;10.95;;;1.75;;
65719;SDS011;52447;-36.632;-64.320;2023-01-31T03:20:51;6.47;;;1.45;;
65719;SDS011;52447;-36.632;-64.320;2023-01-31T03:23:24;5.20;;;1.70;;
65719;SDS011;52447;-36.632;-64.320;2023-01-31T03:25:56;7.28;;;1.70;;
65719;SDS011;52447;-36.632;-64.320;2023-01-31T03:28:26;5.90;;;1.58;;
65719;SDS011;52447;-36.632;-64.320;2023-01-31T03:33:48;6.85;;;1.40;;
65719;SDS011;52447;-36.632;-64.320;2023-01-31T03:41:54;3.85;;;1.20;;
65719;SDS011;52447;-36.632;-64.320;2023-01-31T03:47:21;6.10;;;1.23;;
65719;SDS011;52447;-36.632;-64.320;2023-01-31T03:49:50;8.35;;;1.48;;
65719;SDS011;52447;-36.632;-64.320;2023-01-31T03:52:19;5.70;;;1.65;;
65719;SDS011;52447;-36.632;-64.320;2023-01-31T03:55:10;2.50;;;1.10;;
65719;SDS011;52447;-36.632;-64.320;2023-01-31T03:57:45;5.60;;;1.88;;
65719;SDS011;52447;-36.632;-64.320;2023-01-31T04:00:15;5.47;;;1.40;;
65719;SDS011;52447;-36.632;-64.320;2023-01-31T04:02:42;4.03;;;1.33;;
65719;SDS011;52447;-36.632;-64.320;2023-01-31T04:05:10;4.00;;;1.10;;
65719;SDS011;52447;-36.632;-64.320;2023-01-31T04:07:39;6.80;;;1.05;;
65719;SDS011;52447;-36.632;-64.320;2023-01-31T04:10:08;8.77;;;1.25;;
65719;SDS011;52447;-36.632;-64.320;2023-01-31T04:12:39;6.50;;;1.92;;
65719;SDS011;52447;-36.632;-64.320;2023-01-31T04:15:06;11.70;;;1.77;;
65719;SDS011;52447;-36.632;-64.320;2023-01-31T04:17:34;7.07;;;1.30;;
65719;SDS011;52447;-36.632;-64.320;2023-01-31T04:20:01;3.55;;;1.20;;
65719;SDS011;52447;-36.632;-64.320;2023-01-31T04:22:30;6.72;;;1.10;;
65719;SDS011;52447;-36.632;-64.320;2023-01-31T04:27:23;4.30;;;1.20;;
65719;SDS011;52447;-36.632;-64.320;2023-01-31T04:32:17;9.07;;;2.00;;
65719;SDS011;52447;-36.632;-64.320;2023-01-31T04:34:44;9.55;;;1.17;;
65719;SDS011;52447;-36.632;-64.320;2023-01-31T04:37:12;6.70;;;1.17;;
65719;SDS011;52447;-36.632;-64.320;2023-01-31T04:39:39;4.65;;;0.98;;
65719;SDS011;52447;-36.632;-64.320;2023-01-31T04:42:06;3.70;;;0.98;;
65719;SDS011;52447;-36.632;-64.320;2023-01-31T04:44:33;5.35;;;1.30;;
65719;SDS011;52447;-36.632;-64.320;2023-01-31T04:49:26;5.50;;;1.50;;
65719;SDS011;52447;-36.632;-64.320;2023-01-31T04:51:53;6.32;;;1.50;;
65719;SDS011;52447;-36.632;-64.320;2023-01-31T04:56:47;9.25;;;1.40;;
65719;SDS011;52447;-36.632;-64.320;2023-01-31T04:59:14;10.82;;;2.80;;
65719;SDS011;52447;-36.632;-64.320;2023-01-31T05:01:41;7.10;;;1.23;;
65719;SDS011;52447;-36.632;-64.320;2023-01-31T05:04:08;11.40;;;1.25;;
65719;SDS011;52447;-36.632;-64.320;2023-01-31T05:06:35;5.15;;;1.30;;
65719;SDS011;52447;-36.632;-64.320;2023-01-31T05:11:29;5.70;;;1.23;;
65719;SDS011;52447;-36.632;-64.320;2023-01-31T05:13:56;3.80;;;0.82;;
65719;SDS011;52447;-36.632;-64.320;2023-01-31T05:16:23;6.90;;;1.30;;
65719;SDS011;52447;-36.632;-64.320;2023-01-31T05:18:50;6.55;;;1.25;;
65719;SDS011;52447;-36.632;-64.320;2023-01-31T05:21:16;10.75;;;1.65;;
65719;SDS011;52447;-36.632;-64.320;2023-01-31T05:23:43;5.25;;;1.25;;
65719;SDS011;52447;-36.632;-64.320;2023-01-31T05:26:11;2.70;;;1.00;;
65719;SDS011;52447;-36.632;-64.320;2023-01-31T05:31:05;4.05;;;1.40;;
65719;SDS011;52447;-36.632;-64.320;2023-01-31T05:33:33;9.98;;;1.35;;
65719;SDS011;52447;-36.632;-64.320;2023-01-31T05:36:00;7.57;;;1.10;;
65719;SDS011;52447;-36.632;-64.320;2023-01-31T05:38:28;3.95;;;1.33;;
65719;SDS011;52447;-36.632;-64.320;2023-01-31T05:43:21;3.80;;;1.33;;
65719;SDS011;52447;-36.632;-64.320;2023-01-31T05:45:48;5.80;;;1.27;;
65719;SDS011;52447;-36.632;-64.320;2023-01-31T05:48:15;2.90;;;1.45;;
65719;SDS011;52447;-36.632;-64.320;2023-01-31T05:50:42;6.13;;;1.10;;
65719;SDS011;52447;-36.632;-64.320;2023-01-31T05:53:09;6.18;;;1.60;;
65719;SDS011;52447;-36.632;-64.320;2023-01-31T05:58:03;5.75;;;1.30;;
65719;SDS011;52447;-36.632;-64.320;2023-01-31T06:00:30;5.15;;;1.10;;
65719;SDS011;52447;-36.632;-64.320;2023-01-31T06:02:57;4.00;;;1.48;;
65719;SDS011;52447;-36.632;-64.320;2023-01-31T06:05:24;7.38;;;1.00;;
65719;SDS011;52447;-36.632;-64.320;2023-01-31T06:07:52;4.88;;;1.38;;
65719;SDS011;52447;-36.632;-64.320;2023-01-31T06:10:19;8.55;;;1.48;;
65719;SDS011;52447;-36.632;-64.320;2023-01-31T06:12:46;6.13;;;1.45;;
65719;SDS011;52447;-36.632;-64.320;2023-01-31T06:15:13;4.43;;;1.30;;
65719;SDS011;52447;-36.632;-64.320;2023-01-31T06:20:07;8.25;;;1.35;;
65719;SDS011;52447;-36.632;-64.320;2023-01-31T06:22:35;7.15;;;1.38;;
65719;SDS011;52447;-36.632;-64.320;2023-01-31T06:25:02;4.35;;;1.45;;
65719;SDS011;52447;-36.632;-64.320;2023-01-31T06:27:32;3.25;;;1.23;;
65719;SDS011;52447;-36.632;-64.320;2023-01-31T06:30:00;7.32;;;1.17;;
65719;SDS011;52447;-36.632;-64.320;2023-01-31T06:34:53;7.75;;;1.60;;
65719;SDS011;52447;-36.632;-64.320;2023-01-31T06:37:20;5.88;;;1.23;;
65719;SDS011;52447;-36.632;-64.320;2023-01-31T06:39:47;12.40;;;1.67;;
65719;SDS011;52447;-36.632;-64.320;2023-01-31T06:42:14;3.42;;;1.60;;
65719;SDS011;52447;-36.632;-64.320;2023-01-31T06:44:41;5.65;;;1.15;;
65719;SDS011;52447;-36.632;-64.320;2023-01-31T06:47:08;7.32;;;1.55;;
65719;SDS011;52447;-36.632;-64.320;2023-01-31T06:49:37;30.55;;;2.72;;
65719;SDS011;52447;-36.632;-64.320;2023-01-31T06:54:31;13.75;;;3.63;;
65719;SDS011;52447;-36.632;-64.320;2023-01-31T06:56:58;19.30;;;2.88;;
65719;SDS011;52447;-36.632;-64.320;2023-01-31T06:59:25;18.05;;;3.05;;
65719;SDS011;52447;-36.632;-64.320;2023-01-31T07:01:52;13.13;;;2.50;;
65719;SDS011;52447;-36.632;-64.320;2023-01-31T07:04:19;12.73;;;2.90;;
65719;SDS011;52447;-36.632;-64.320;2023-01-31T07:06:46;12.70;;;2.65;;
65719;SDS011;52447;-36.632;-64.320;2023-01-31T07:09:13;11.52;;;1.80;;
65719;SDS011;52447;-36.632;-64.320;2023-01-31T07:11:40;12.63;;;1.80;;
65719;SDS011;52447;-36.632;-64.320;2023-01-31T07:14:07;4.95;;;1.58;;
65719;SDS011;52447;-36.632;-64.320;2023-01-31T07:16:34;7.25;;;1.55;;
65719;SDS011;52447;-36.632;-64.320;2023-01-31T07:19:02;5.80;;;1.77;;
65719;SDS011;52447;-36.632;-64.320;2023-01-31T07:21:29;6.00;;;1.80;;
65719;SDS011;52447;-36.632;-64.320;2023-01-31T07:23:58;8.63;;;2.13;;
65719;SDS011;52447;-36.632;-64.320;2023-01-31T07:28:51;7.80;;;1.63;;
65719;SDS011;52447;-36.632;-64.320;2023-01-31T07:31:18;6.95;;;1.60;;
65719;SDS011;52447;-36.632;-64.320;2023-01-31T07:33:45;8.30;;;1.85;;
65719;SDS011;52447;-36.632;-64.320;2023-01-31T07:38:40;10.77;;;1.80;;
65719;SDS011;52447;-36.632;-64.320;2023-01-31T07:43:34;15.93;;;1.70;;
65719;SDS011;52447;-36.632;-64.320;2023-01-31T07:46:01;8.63;;;2.20;;
65719;SDS011;52447;-36.632;-64.320;2023-01-31T07:48:33;5.95;;;1.80;;
65719;SDS011;52447;-36.632;-64.320;2023-01-31T07:51:00;9.48;;;2.53;;
65719;SDS011;52447;-36.632;-64.320;2023-01-31T07:53:28;7.50;;;2.10;;
65719;SDS011;52447;-36.632;-64.320;2023-01-31T07:56:06;10.65;;;1.80;;
65719;SDS011;52447;-36.632;-64.320;2023-01-31T07:58:35;8.07;;;1.60;;
65719;SDS011;52447;-36.632;-64.320;2023-01-31T08:01:03;10.23;;;1.85;;
65719;SDS011;52447;-36.632;-64.320;2023-01-31T08:03:48;8.50;;;1.58;;
65719;SDS011;52447;-36.632;-64.320;2023-01-31T08:08:42;7.60;;;1.50;;
65719;SDS011;52447;-36.632;-64.320;2023-01-31T08:11:10;7.07;;;1.55;;
65719;SDS011;52447;-36.632;-64.320;2023-01-31T08:13:37;2.70;;;1.45;;
65719;SDS011;52447;-36.632;-64.320;2023-01-31T08:16:05;10.02;;;1.65;;
65719;SDS011;52447;-36.632;-64.320;2023-01-31T08:18:34;7.05;;;1.83;;
65719;SDS011;52447;-36.632;-64.320;2023-01-31T08:21:02;9.60;;;2.13;;
65719;SDS011;52447;-36.632;-64.320;2023-01-31T08:23:29;7.70;;;1.65;;
65719;SDS011;52447;-36.632;-64.320;2023-01-31T08:26:04;3.38;;;1.27;;
65719;SDS011;52447;-36.632;-64.320;2023-01-31T08:28:41;6.18;;;1.65;;
65719;SDS011;52447;-36.632;-64.320;2023-01-31T08:31:11;5.95;;;1.13;;
65719;SDS011;52447;-36.632;-64.320;2023-01-31T08:33:40;11.30;;;1.80;;
65719;SDS011;52447;-36.632;-64.320;2023-01-31T08:36:14;8.88;;;1.58;;
65719;SDS011;52447;-36.632;-64.320;2023-01-31T08:38:43;8.38;;;1.98;;
65719;SDS011;52447;-36.632;-64.320;2023-01-31T08:46:04;10.77;;;1.92;;
65719;SDS011;52447;-36.632;-64.320;2023-01-31T08:48:32;6.57;;;1.50;;
65719;SDS011;52447;-36.632;-64.320;2023-01-31T08:51:02;5.05;;;1.48;;
65719;SDS011;52447;-36.632;-64.320;2023-01-31T08:53:30;4.80;;;1.10;;
65719;SDS011;52447;-36.632;-64.320;2023-01-31T08:55:59;7.20;;;1.58;;
65719;SDS011;52447;-36.632;-64.320;2023-01-31T08:58:26;6.63;;;1.40;;
65719;SDS011;52447;-36.632;-64.320;2023-01-31T09:03:20;7.13;;;1.65;;
65719;SDS011;52447;-36.632;-64.320;2023-01-31T09:05:47;10.55;;;1.40;;
65719;SDS011;52447;-36.632;-64.320;2023-01-31T09:08:14;6.88;;;1.70;;
65719;SDS011;52447;-36.632;-64.320;2023-01-31T09:10:41;7.80;;;1.63;;
65719;SDS011;52447;-36.632;-64.320;2023-01-31T09:13:08;6.95;;;1.33;;
65719;SDS011;52447;-36.632;-64.320;2023-01-31T09:15:35;7.03;;;1.58;;
65719;SDS011;52447;-36.632;-64.320;2023-01-31T09:18:02;5.47;;;1.42;;
65719;SDS011;52447;-36.632;-64.320;2023-01-31T09:20:30;4.78;;;1.67;;
65719;SDS011;52447;-36.632;-64.320;2023-01-31T09:22:57;3.90;;;1.40;;
65719;SDS011;52447;-36.632;-64.320;2023-01-31T09:25:24;5.85;;;1.27;;
65719;SDS011;52447;-36.632;-64.320;2023-01-31T09:30:18;5.20;;;1.20;;
65719;SDS011;52447;-36.632;-64.320;2023-01-31T09:32:45;6.90;;;1.40;;
65719;SDS011;52447;-36.632;-64.320;2023-01-31T09:35:14;4.90;;;1.20;;
65719;SDS011;52447;-36.632;-64.320;2023-01-31T09:37:43;4.35;;;1.48;;
65719;SDS011;52447;-36.632;-64.320;2023-01-31T09:40:11;4.93;;;1.55;;
65719;SDS011;52447;-36.632;-64.320;2023-01-31T09:42:42;13.05;;;2.15;;
65719;SDS011;52447;-36.632;-64.320;2023-01-31T09:45:14;6.40;;;1.50;;
65719;SDS011;52447;-36.632;-64.320;2023-01-31T09:47:58;3.33;;;1.27;;
65719;SDS011;52447;-36.632;-64.320;2023-01-31T09:50:46;4.45;;;1.63;;
65719;SDS011;52447;-36.632;-64.320;2023-01-31T09:53:19;5.05;;;1.42;;
65719;SDS011;52447;-36.632;-64.320;2023-01-31T10:01:00;5.47;;;1.58;;
65719;SDS011;52447;-36.632;-64.320;2023-01-31T10:06:31;7.72;;;1.52;;
65719;SDS011;52447;-36.632;-64.320;2023-01-31T10:09:30;3.85;;;1.60;;
65719;SDS011;52447;-36.632;-64.320;2023-01-31T10:12:06;11.13;;;2.10;;
65719;SDS011;52447;-36.632;-64.320;2023-01-31T10:14:48;4.83;;;1.60;;
65719;SDS011;52447;-36.632;-64.320;2023-01-31T10:17:23;9.27;;;1.70;;
65719;SDS011;52447;-36.632;-64.320;2023-01-31T10:19:53;8.73;;;2.15;;
65719;SDS011;52447;-36.632;-64.320;2023-01-31T10:22:43;14.15;;;3.00;;
65719;SDS011;52447;-36.632;-64.320;2023-01-31T10:25:29;9.95;;;2.92;;
65719;SDS011;52447;-36.632;-64.320;2023-01-31T10:28:14;21.55;;;6.40;;
65719;SDS011;52447;-36.632;-64.320;2023-01-31T10:33:43;20.83;;;3.80;;
65719;SDS011;52447;-36.632;-64.320;2023-01-31T10:36:35;25.00;;;3.78;;
65719;SDS011;52447;-36.632;-64.320;2023-01-31T10:39:23;34.70;;;4.30;;
65719;SDS011;52447;-36.632;-64.320;2023-01-31T10:41:59;30.38;;;4.57;;
65719;SDS011;52447;-36.632;-64.320;2023-01-31T10:44:35;44.35;;;8.43;;
65719;SDS011;52447;-36.632;-64.320;2023-01-31T10:47:31;35.70;;;5.90;;
65719;SDS011;52447;-36.632;-64.320;2023-01-31T10:50:00;36.65;;;5.43;;
65719;SDS011;52447;-36.632;-64.320;2023-01-31T10:55:20;34.97;;;5.95;;
65719;SDS011;52447;-36.632;-64.320;2023-01-31T10:57:54;40.25;;;5.50;;
65719;SDS011;52447;-36.632;-64.320;2023-01-31T11:00:25;40.70;;;4.93;;
65719;SDS011;52447;-36.632;-64.320;2023-01-31T11:02:55;35.08;;;4.43;;
65719;SDS011;52447;-36.632;-64.320;2023-01-31T11:05:24;67.90;;;8.80;;
65719;SDS011;52447;-36.632;-64.320;2023-01-31T11:07:52;41.50;;;5.68;;
65719;SDS011;52447;-36.632;-64.320;2023-01-31T11:10:28;37.80;;;5.97;;
65719;SDS011;52447;-36.632;-64.320;2023-01-31T11:13:00;220.70;;;18.42;;
65719;SDS011;52447;-36.632;-64.320;2023-01-31T11:15:38;34.67;;;5.40;;
65719;SDS011;52447;-36.632;-64.320;2023-01-31T11:18:08;239.40;;;20.52;;
65719;SDS011;52447;-36.632;-64.320;2023-01-31T11:20:45;197.23;;;15.18;;
65719;SDS011;52447;-36.632;-64.320;2023-01-31T11:23:23;195.82;;;14.15;;
65719;SDS011;52447;-36.632;-64.320;2023-01-31T11:25:51;110.95;;;9.32;;
65719;SDS011;52447;-36.632;-64.320;2023-01-31T11:31:21;424.20;;;32.25;;
65719;SDS011;52447;-36.632;-64.320;2023-01-31T11:34:01;31.38;;;4.65;;
65719;SDS011;52447;-36.632;-64.320;2023-01-31T11:36:33;31.33;;;4.13;;
65719;SDS011;52447;-36.632;-64.320;2023-01-31T11:41:56;34.88;;;4.75;;
65719;SDS011;52447;-36.632;-64.320;2023-01-31T11:44:36;36.85;;;5.53;;
65719;SDS011;52447;-36.632;-64.320;2023-01-31T11:47:39;40.35;;;4.72;;
65719;SDS011;52447;-36.632;-64.320;2023-01-31T11:50:19;29.33;;;5.20;;
65719;SDS011;52447;-36.632;-64.320;2023-01-31T11:52:59;316.85;;;30.75;;
65719;SDS011;52447;-36.632;-64.320;2023-01-31T11:55:27;49.35;;;6.47;;
65719;SDS011;52447;-36.632;-64.320;2023-01-31T11:58:05;55.67;;;7.97;;
65719;SDS011;52447;-36.632;-64.320;2023-01-31T12:00:52;70.80;;;7.60;;
65719;SDS011;52447;-36.632;-64.320;2023-01-31T12:03:20;51.40;;;7.65;;
65719;SDS011;52447;-36.632;-64.320;2023-01-31T12:05:58;45.55;;;6.60;;
65719;SDS011;52447;-36.632;-64.320;2023-01-31T12:11:04;33.35;;;5.65;;
65719;SDS011;52447;-36.632;-64.320;2023-01-31T12:13:32;38.88;;;5.50;;
65719;SDS011;52447;-36.632;-64.320;2023-01-31T12:16:16;42.60;;;6.53;;
65719;SDS011;52447;-36.632;-64.320;2023-01-31T12:21:22;32.75;;;4.63;;
65719;SDS011;52447;-36.632;-64.320;2023-01-31T12:40:59;55.50;;;5.63;;
65719;SDS011;52447;-36.632;-64.320;2023-01-31T12:44:06;33.13;;;4.07;;
65719;SDS011;52447;-36.632;-64.320;2023-01-31T12:52:26;36.63;;;4.07;;
65719;SDS011;52447;-36.632;-64.320;2023-01-31T13:09:56;32.80;;;4.45;;
65719;SDS011;52447;-36.632;-64.320;2023-01-31T13:12:26;34.10;;;3.92;;
65719;SDS011;52447;-36.632;-64.320;2023-01-31T13:15:04;9.88;;;2.63;;
65719;SDS011;52447;-36.632;-64.320;2023-01-31T13:17:40;19.50;;;2.10;;
65719;SDS011;52447;-36.632;-64.320;2023-01-31T13:22:42;18.27;;;2.88;;
65719;SDS011;52447;-36.632;-64.320;2023-01-31T13:25:43;27.92;;;2.97;;
65719;SDS011;52447;-36.632;-64.320;2023-01-31T13:30:49;58.03;;;5.78;;
65719;SDS011;52447;-36.632;-64.320;2023-01-31T13:33:34;51.07;;;6.70;;
65719;SDS011;52447;-36.632;-64.320;2023-01-31T13:38:53;70.97;;;5.72;;
65719;SDS011;52447;-36.632;-64.320;2023-01-31T13:41:29;89.38;;;8.25;;
65719;SDS011;52447;-36.632;-64.320;2023-01-31T13:43:57;276.77;;;21.20;;
65719;SDS011;52447;-36.632;-64.320;2023-01-31T13:46:34;219.30;;;17.80;;
65719;SDS011;52447;-36.632;-64.320;2023-01-31T13:49:08;213.32;;;17.23;;
65719;SDS011;52447;-36.632;-64.320;2023-01-31T13:54:25;261.10;;;21.98;;
65719;SDS011;52447;-36.632;-64.320;2023-01-31T13:56:58;296.23;;;20.17;;
65719;SDS011;52447;-36.632;-64.320;2023-01-31T13:59:33;296.15;;;19.58;;
65719;SDS011;52447;-36.632;-64.320;2023-01-31T14:02:05;165.65;;;14.02;;
65719;SDS011;52447;-36.632;-64.320;2023-01-31T14:04:43;81.35;;;8.48;;
65719;SDS011;52447;-36.632;-64.320;2023-01-31T14:07:13;73.63;;;8.15;;
65719;SDS011;52447;-36.632;-64.320;2023-01-31T14:09:43;182.75;;;14.02;;
65719;SDS011;52447;-36.632;-64.320;2023-01-31T14:17:56;44.60;;;5.38;;
65719;SDS011;52447;-36.632;-64.320;2023-01-31T14:20:34;39.20;;;4.65;;
65719;SDS011;52447;-36.632;-64.320;2023-01-31T14:25:52;31.75;;;3.90;;
65719;SDS011;52447;-36.632;-64.320;2023-01-31T14:28:20;24.15;;;3.17;;
65719;SDS011;52447;-36.632;-64.320;2023-01-31T14:30:47;22.08;;;3.53;;
65719;SDS011;52447;-36.632;-64.320;2023-01-31T14:33:20;28.85;;;3.03;;
65719;SDS011;52447;-36.632;-64.320;2023-01-31T14:38:54;25.50;;;2.50;;
65719;SDS011;52447;-36.632;-64.320;2023-01-31T14:47:12;42.67;;;4.93;;
65719;SDS011;52447;-36.632;-64.320;2023-01-31T14:52:58;33.22;;;3.40;;
65719;SDS011;52447;-36.632;-64.320;2023-01-31T14:58:04;94.93;;;7.80;;
65719;SDS011;52447;-36.632;-64.320;2023-01-31T15:00:47;35.08;;;3.03;;
65719;SDS011;52447;-36.632;-64.320;2023-01-31T15:03:51;37.88;;;4.10;;
65719;SDS011;52447;-36.632;-64.320;2023-01-31T15:06:31;31.65;;;3.55;;
65719;SDS011;52447;-36.632;-64.320;2023-01-31T15:11:41;54.58;;;6.03;;
65719;SDS011;52447;-36.632;-64.320;2023-01-31T15:16:56;58.78;;;7.55;;
65719;SDS011;52447;-36.632;-64.320;2023-01-31T15:22:50;47.30;;;6.10;;
65719;SDS011;52447;-36.632;-64.320;2023-01-31T15:25:34;62.38;;;6.60;;
65719;SDS011;52447;-36.632;-64.320;2023-01-31T15:28:08;43.17;;;5.27;;
65719;SDS011;52447;-36.632;-64.320;2023-01-31T15:30:39;43.30;;;6.03;;
65719;SDS011;52447;-36.632;-64.320;2023-01-31T15:33:12;49.05;;;5.53;;
65719;SDS011;52447;-36.632;-64.320;2023-01-31T15:45:43;39.90;;;4.97;;
65719;SDS011;52447;-36.632;-64.320;2023-01-31T15:48:13;35.78;;;3.53;;
65719;SDS011;52447;-36.632;-64.320;2023-01-31T15:51:02;31.85;;;4.03;;
65719;SDS011;52447;-36.632;-64.320;2023-01-31T15:53:28;19.83;;;2.63;;
65719;SDS011;52447;-36.632;-64.320;2023-01-31T15:55:57;23.08;;;3.30;;
65719;SDS011;52447;-36.632;-64.320;2023-01-31T15:58:27;28.80;;;3.65;;
65719;SDS011;52447;-36.632;-64.320;2023-01-31T16:00:56;33.60;;;3.88;;
65719;SDS011;52447;-36.632;-64.320;2023-01-31T16:03:38;53.70;;;5.45;;
65719;SDS011;52447;-36.632;-64.320;2023-01-31T16:06:15;51.55;;;4.68;;
65719;SDS011;52447;-36.632;-64.320;2023-01-31T16:08:52;36.13;;;4.20;;
65719;SDS011;52447;-36.632;-64.320;2023-01-31T16:11:21;23.92;;;2.95;;
65719;SDS011;52447;-36.632;-64.320;2023-01-31T16:13:50;26.38;;;5.35;;
65719;SDS011;52447;-36.632;-64.320;2023-01-31T16:16:18;24.38;;;3.25;;
65719;SDS011;52447;-36.632;-64.320;2023-01-31T16:18:56;34.35;;;4.53;;
65719;SDS011;52447;-36.632;-64.320;2023-01-31T16:21:42;19.70;;;3.08;;
65719;SDS011;52447;-36.632;-64.320;2023-01-31T16:24:13;35.58;;;4.47;;
65719;SDS011;52447;-36.632;-64.320;2023-01-31T16:29:46;22.38;;;3.00;;
65719;SDS011;52447;-36.632;-64.320;2023-01-31T16:32:18;19.52;;;2.80;;
65719;SDS011;52447;-36.632;-64.320;2023-01-31T16:35:05;22.92;;;3.03;;
65719;SDS011;52447;-36.632;-64.320;2023-01-31T16:37:47;18.13;;;2.75;;
65719;SDS011;52447;-36.632;-64.320;2023-01-31T16:40:52;43.53;;;5.15;;
65719;SDS011;52447;-36.632;-64.320;2023-01-31T16:43:24;32.70;;;3.38;;
65719;SDS011;52447;-36.632;-64.320;2023-01-31T16:49:01;24.98;;;3.80;;
65719;SDS011;52447;-36.632;-64.320;2023-01-31T16:57:03;51.28;;;6.00;;
65719;SDS011;52447;-36.632;-64.320;2023-01-31T17:02:09;31.23;;;3.80;;
65719;SDS011;52447;-36.632;-64.320;2023-01-31T17:04:39;44.85;;;5.15;;
65719;SDS011;52447;-36.632;-64.320;2023-01-31T17:07:40;41.25;;;5.90;;
65719;SDS011;52447;-36.632;-64.320;2023-01-31T17:10:04;35.83;;;4.20;;
65719;SDS011;52447;-36.632;-64.320;2023-01-31T17:12:34;39.30;;;5.18;;
65719;SDS011;52447;-36.632;-64.320;2023-01-31T17:15:14;40.45;;;5.78;;
65719;SDS011;52447;-36.632;-64.320;2023-01-31T17:17:42;57.60;;;6.32;;
65719;SDS011;52447;-36.632;-64.320;2023-01-31T17:20:16;42.13;;;6.20;;
65719;SDS011;52447;-36.632;-64.320;2023-01-31T17:22:45;57.05;;;6.93;;
65719;SDS011;52447;-36.632;-64.320;2023-01-31T17:25:17;64.28;;;7.05;;
65719;SDS011;52447;-36.632;-64.320;2023-01-31T17:27:46;43.28;;;5.45;;
65719;SDS011;52447;-36.632;-64.320;2023-01-31T17:30:14;41.92;;;5.55;;
65719;SDS011;52447;-36.632;-64.320;2023-01-31T17:32:43;44.03;;;6.43;;
65719;SDS011;52447;-36.632;-64.320;2023-01-31T17:35:22;51.28;;;5.82;;
65719;SDS011;52447;-36.632;-64.320;2023-01-31T17:37:50;29.85;;;4.55;;
65719;SDS011;52447;-36.632;-64.320;2023-01-31T17:42:43;44.03;;;5.45;;
65719;SDS011;52447;-36.632;-64.320;2023-01-31T17:47:42;37.42;;;5.80;;
65719;SDS011;52447;-36.632;-64.320;2023-01-31T17:50:13;34.03;;;4.60;;
65719;SDS011;52447;-36.632;-64.320;2023-01-31T17:52:48;92.00;;;11.38;;
65719;SDS011;52447;-36.632;-64.320;2023-01-31T17:55:16;56.25;;;6.10;;
65719;SDS011;52447;-36.632;-64.320;2023-01-31T17:57:44;35.17;;;5.43;;
65719;SDS011;52447;-36.632;-64.320;2023-01-31T18:00:12;20.25;;;4.72;;
65719;SDS011;52447;-36.632;-64.320;2023-01-31T18:02:41;20.83;;;4.15;;
65719;SDS011;52447;-36.632;-64.320;2023-01-31T18:05:09;21.63;;;4.68;;
65719;SDS011;52447;-36.632;-64.320;2023-01-31T18:07:37;33.90;;;5.35;;
65719;SDS011;52447;-36.632;-64.320;2023-01-31T18:10:05;33.10;;;4.22;;
65719;SDS011;52447;-36.632;-64.320;2023-01-31T18:12:33;34.58;;;6.07;;
65719;SDS011;52447;-36.632;-64.320;2023-01-31T18:15:01;40.38;;;5.75;;
65719;SDS011;52447;-36.632;-64.320;2023-01-31T18:17:28;56.88;;;6.72;;
65719;SDS011;52447;-36.632;-64.320;2023-01-31T18:22:22;47.70;;;5.35;;
65719;SDS011;52447;-36.632;-64.320;2023-01-31T18:24:52;39.67;;;5.13;;
65719;SDS011;52447;-36.632;-64.320;2023-01-31T18:27:19;73.28;;;7.78;;
65719;SDS011;52447;-36.632;-64.320;2023-01-31T18:32:13;70.85;;;7.20;;
65719;SDS011;52447;-36.632;-64.320;2023-01-31T18:34:40;77.82;;;8.18;;
65719;SDS011;52447;-36.632;-64.320;2023-01-31T18:37:07;62.90;;;6.88;;